createdAt,value
2017-11-04T00:00:37.915Z,84.24
2017-11-04T00:03:05.534Z,84.15
2017-11-04T00:05:33.187Z,84.30
2017-11-04T00:08:00.847Z,84.61
2017-11-04T00:10:28.506Z,84.83
2017-11-04T00:12:56.142Z,84.89
2017-11-04T00:15:23.790Z,84.93
2017-11-04T00:17:51.511Z,84.59
2017-11-04T00:20:19.158Z,85.00
2017-11-04T00:22:46.805Z,85.25
2017-11-04T00:25:14.453Z,85.49
2017-11-04T00:27:42.063Z,85.62
2017-11-04T00:30:09.702Z,85.80
2017-11-04T00:32:37.328Z,85.85
2017-11-04T00:35:04.970Z,86.05
2017-11-04T00:37:32.593Z,85.99
2017-11-04T00:40:00.253Z,85.88
2017-11-04T00:42:27.874Z,85.79
2017-11-04T00:44:55.550Z,85.77
2017-11-04T00:47:23.174Z,85.78
2017-11-04T00:49:50.850Z,85.71
2017-11-04T00:52:18.477Z,85.68
2017-11-04T00:54:46.152Z,85.39
2017-11-04T00:57:13.770Z,85.33
2017-11-04T00:59:41.446Z,85.61
2017-11-04T01:02:09.204Z,85.81
2017-11-04T01:04:36.862Z,85.93
2017-11-04T01:07:04.470Z,85.93
2017-11-04T01:09:32.841Z,85.99
2017-11-04T01:12:00.505Z,86.10
2017-11-04T01:14:28.125Z,86.15
2017-11-04T01:16:55.763Z,86.01
2017-11-04T01:19:23.369Z,85.89
2017-11-04T01:21:51.035Z,86.17
2017-11-04T01:24:18.633Z,86.31
2017-11-04T01:26:46.296Z,86.40
2017-11-04T01:29:13.934Z,86.35
2017-11-04T01:31:41.601Z,86.29
2017-11-04T01:34:11.094Z,86.15
2017-11-04T01:36:38.745Z,86.27
2017-11-04T01:39:06.368Z,86.05
2017-11-04T01:41:34.034Z,86.07
2017-11-04T01:44:01.645Z,86.35
2017-11-04T01:46:29.254Z,86.24
2017-11-04T01:48:56.910Z,86.30
2017-11-04T01:51:24.516Z,86.33
2017-11-04T01:53:51.592Z,86.64
2017-11-04T01:56:19.188Z,87.02
2017-11-04T01:58:46.846Z,87.21
2017-11-04T02:01:14.446Z,86.97
2017-11-04T02:03:42.091Z,86.78
2017-11-04T02:06:09.721Z,86.88
2017-11-04T02:08:37.389Z,86.84
2017-11-04T02:11:04.997Z,86.76
2017-11-04T02:13:32.593Z,86.57
2017-11-04T02:16:00.226Z,86.65
2017-11-04T02:18:27.826Z,86.67
2017-11-04T02:20:55.483Z,86.81
2017-11-04T02:23:23.105Z,86.78
2017-11-04T02:25:50.760Z,86.80
2017-11-04T02:28:18.376Z,86.59
2017-11-04T02:30:46.001Z,86.65
2017-11-04T02:33:13.598Z,87.12
2017-11-04T02:35:41.274Z,87.46
2017-11-04T02:38:08.895Z,87.62
2017-11-04T02:40:36.512Z,87.70
2017-11-04T02:43:04.157Z,87.29
2017-11-04T02:45:31.771Z,87.18
2017-11-04T02:47:59.421Z,87.21
2017-11-04T02:50:27.094Z,87.24
2017-11-04T02:52:54.754Z,87.10
2017-11-04T02:55:22.370Z,86.89
2017-11-04T02:57:50.038Z,86.87
2017-11-04T03:00:17.743Z,86.81
2017-11-04T03:02:45.350Z,86.68
2017-11-04T03:05:13.011Z,86.85
2017-11-04T03:07:40.629Z,87.35
2017-11-04T03:10:08.279Z,87.70
2017-11-04T03:12:35.893Z,87.77
2017-11-04T03:15:03.606Z,87.54
2017-11-04T03:17:31.213Z,87.83
2017-11-04T03:19:58.905Z,88.00
2017-11-04T03:22:26.497Z,87.93
2017-11-04T03:24:54.086Z,88.20
2017-11-04T03:27:21.728Z,88.43
2017-11-04T03:29:49.335Z,88.52
2017-11-04T03:32:16.979Z,88.55
2017-11-04T03:34:44.570Z,88.58
2017-11-04T03:37:12.217Z,88.44
2017-11-04T03:39:39.833Z,87.98
2017-11-04T03:42:07.489Z,87.92
2017-11-04T03:44:35.106Z,87.88
2017-11-04T03:47:02.794Z,87.77
2017-11-04T03:49:30.398Z,87.75
2017-11-04T03:51:58.006Z,87.72
2017-11-04T03:54:25.637Z,87.84
2017-11-04T03:56:53.249Z,88.34
2017-11-04T03:59:21.038Z,88.51
2017-11-04T04:01:48.641Z,88.57
2017-11-04T04:04:16.283Z,88.57
2017-11-04T04:06:43.887Z,88.67
2017-11-04T04:09:11.544Z,88.77
2017-11-04T04:11:39.142Z,89.02
2017-11-04T04:14:06.808Z,89.25
2017-11-04T04:16:34.433Z,89.34
2017-11-04T04:19:02.085Z,89.21
2017-11-04T04:21:29.741Z,89.24
2017-11-04T04:23:57.349Z,89.28
2017-11-04T04:26:25.075Z,89.32
2017-11-04T04:28:52.676Z,89.49
2017-11-04T04:31:20.318Z,89.98
2017-11-04T04:33:47.925Z,90.99
2017-11-04T04:36:15.574Z,91.57
2017-11-04T04:38:43.198Z,91.78
2017-11-04T04:41:10.855Z,91.94
2017-11-04T04:43:38.453Z,92.27
2017-11-04T04:46:06.104Z,92.57
2017-11-04T04:48:33.710Z,92.59
2017-11-04T04:51:01.501Z,92.69
2017-11-04T04:53:29.121Z,92.77
2017-11-04T04:55:56.802Z,92.88
2017-11-04T04:58:24.442Z,93.45
2017-11-04T05:00:52.053Z,93.66
2017-11-04T05:03:19.701Z,93.80
2017-11-04T05:05:47.315Z,94.32
2017-11-04T05:08:14.974Z,94.48
2017-11-04T05:10:42.592Z,94.77
2017-11-04T05:13:10.244Z,94.87
2017-11-04T05:15:37.837Z,94.93
2017-11-04T05:18:05.486Z,94.78
2017-11-04T05:20:33.097Z,94.12
2017-11-04T05:23:00.870Z,93.90
2017-11-04T05:25:28.485Z,93.96
2017-11-04T05:27:56.102Z,94.34
2017-11-04T05:30:23.753Z,94.62
2017-11-04T05:32:51.350Z,94.64
2017-11-04T05:35:18.998Z,94.61
2017-11-04T05:37:46.602Z,94.54
2017-11-04T05:40:14.239Z,94.57
2017-11-04T05:42:41.878Z,94.43
2017-11-04T05:45:09.518Z,94.46
2017-11-04T05:47:37.165Z,94.44
2017-11-04T05:50:04.846Z,94.60
2017-11-04T05:52:32.493Z,94.90
2017-11-04T05:55:00.104Z,95.02
2017-11-04T05:57:27.812Z,95.02
2017-11-04T05:59:55.377Z,95.02
2017-11-04T06:02:23.018Z,94.88
2017-11-04T06:04:50.629Z,95.06
2017-11-04T06:07:18.250Z,95.24
2017-11-04T06:09:45.890Z,95.47
2017-11-04T06:12:13.535Z,95.45
2017-11-04T06:14:41.182Z,95.68
2017-11-04T06:17:08.789Z,95.85
2017-11-04T06:19:36.429Z,96.26
2017-11-04T06:22:04.067Z,96.40
2017-11-04T06:24:31.730Z,96.27
2017-11-04T06:26:59.332Z,96.33
2017-11-04T06:29:26.973Z,96.31
2017-11-04T06:31:54.655Z,96.23
2017-11-04T06:34:22.313Z,96.03
2017-11-04T06:36:49.942Z,95.91
2017-11-04T06:39:17.634Z,95.81
2017-11-04T06:41:45.303Z,95.47
2017-11-04T06:44:12.944Z,95.43
2017-11-04T06:46:40.553Z,95.26
2017-11-04T06:49:08.192Z,95.20
2017-11-04T06:51:35.817Z,94.99
2017-11-04T06:54:03.461Z,94.93
2017-11-04T06:56:31.078Z,94.90
2017-11-04T06:58:58.714Z,95.06
2017-11-04T07:01:26.333Z,94.89
2017-11-04T07:03:53.979Z,94.82
2017-11-04T07:06:21.606Z,94.78
2017-11-04T07:08:49.294Z,94.69
2017-11-04T07:11:16.895Z,94.72
2017-11-04T07:13:44.690Z,94.88
2017-11-04T07:16:12.294Z,94.95
2017-11-04T07:18:39.933Z,95.05
2017-11-04T07:21:07.553Z,95.11
2017-11-04T07:23:35.219Z,95.10
2017-11-04T07:26:02.826Z,95.09
2017-11-04T07:28:30.517Z,95.20
2017-11-04T07:30:58.124Z,95.30
2017-11-04T07:33:25.809Z,95.55
2017-11-04T07:35:53.425Z,95.82
2017-11-04T07:38:21.068Z,95.89
2017-11-04T07:40:48.709Z,96.05
2017-11-04T07:43:16.352Z,96.15
2017-11-04T07:45:43.971Z,96.24
2017-11-04T07:48:11.611Z,96.20
2017-11-04T07:50:39.214Z,96.11
2017-11-04T07:53:06.862Z,96.09
2017-11-04T07:55:34.470Z,96.20
2017-11-04T07:58:02.125Z,96.43
2017-11-04T08:00:29.734Z,96.31
2017-11-04T08:02:57.407Z,96.39
2017-11-04T08:05:25.147Z,96.29
2017-11-04T08:07:52.805Z,96.16
2017-11-04T08:10:20.417Z,96.19
2017-11-04T08:12:48.064Z,96.18
2017-11-04T08:15:15.688Z,96.04
2017-11-04T08:17:43.319Z,95.82
2017-11-04T08:20:10.971Z,95.57
2017-11-04T08:22:38.634Z,95.05
2017-11-04T08:25:06.246Z,95.12
2017-11-04T08:27:33.914Z,94.62
2017-11-04T08:30:01.534Z,94.69
2017-11-04T08:32:29.196Z,94.08
2017-11-04T08:34:56.845Z,94.31
2017-11-04T08:37:27.395Z,94.25
2017-11-04T08:39:55.010Z,93.88
2017-11-04T08:42:22.664Z,93.91
2017-11-04T08:44:50.377Z,93.85
2017-11-04T08:47:18.055Z,93.68
2017-11-04T08:49:45.789Z,93.62
2017-11-04T08:52:13.400Z,93.61
2017-11-04T08:54:41.036Z,93.04
2017-11-04T08:57:08.682Z,92.37
2017-11-04T08:59:36.301Z,92.05
2017-11-04T09:02:03.963Z,91.66
2017-11-04T09:04:31.610Z,91.39
2017-11-04T09:06:59.261Z,91.09
2017-11-04T09:09:26.902Z,90.75
2017-11-04T09:11:54.569Z,90.07
2017-11-04T09:14:22.206Z,89.53
2017-11-04T09:16:49.845Z,89.13
2017-11-04T09:19:17.464Z,88.51
2017-11-04T09:21:45.133Z,88.13
2017-11-04T09:24:12.803Z,87.36
2017-11-04T09:26:40.431Z,86.49
2017-11-04T09:29:08.094Z,86.09
2017-11-04T09:31:35.725Z,86.18
2017-11-04T09:34:03.397Z,85.92
2017-11-04T09:36:31.017Z,86.88
2017-11-04T09:38:58.675Z,87.48
2017-11-04T09:41:26.304Z,88.05
2017-11-04T09:43:53.964Z,87.74
2017-11-04T09:46:21.581Z,88.18
2017-11-04T09:48:49.221Z,87.78
2017-11-04T09:51:16.854Z,87.17
2017-11-04T09:53:44.508Z,86.64
2017-11-04T09:56:12.186Z,85.29
2017-11-04T09:58:39.853Z,83.96
2017-11-04T10:01:07.473Z,83.94
2017-11-04T10:03:35.166Z,83.01
2017-11-04T10:06:02.802Z,82.61
2017-11-04T10:08:32.207Z,82.83
2017-11-04T10:10:59.829Z,83.76
2017-11-04T10:13:27.478Z,84.16
2017-11-04T10:15:55.091Z,84.36
2017-11-04T10:18:22.761Z,84.46
2017-11-04T10:20:50.467Z,84.35
2017-11-04T10:23:18.121Z,83.53
2017-11-04T10:25:45.735Z,83.30
2017-11-04T10:28:13.478Z,82.64
2017-11-04T10:30:41.090Z,82.05
2017-11-04T10:33:08.851Z,82.95
2017-11-04T10:35:36.465Z,83.28
2017-11-04T10:38:04.171Z,83.95
2017-11-04T10:40:31.798Z,83.67
2017-11-04T10:42:59.491Z,83.65
2017-11-04T10:45:27.102Z,83.48
2017-11-04T10:47:54.722Z,84.02
2017-11-04T10:50:22.398Z,84.20
2017-11-04T10:52:50.023Z,83.97
2017-11-04T10:55:17.681Z,83.97
2017-11-04T10:57:45.341Z,83.88
2017-11-04T11:00:13.028Z,84.14
2017-11-04T11:02:40.667Z,83.21
2017-11-04T11:05:08.326Z,81.19
2017-11-04T11:07:35.954Z,80.21
2017-11-04T11:10:03.589Z,80.15
2017-11-04T11:12:31.235Z,80.59
2017-11-04T11:14:58.879Z,81.58
2017-11-04T11:17:26.486Z,82.22
2017-11-04T11:19:54.135Z,82.67
2017-11-04T11:22:21.774Z,83.04
2017-11-04T11:24:49.421Z,83.55
2017-11-04T11:27:17.036Z,83.34
2017-11-04T11:29:44.765Z,83.04
2017-11-04T11:32:12.401Z,82.92
2017-11-04T11:34:40.053Z,81.92
2017-11-04T11:37:07.693Z,81.16
2017-11-04T11:39:35.358Z,81.44
2017-11-04T11:42:02.990Z,81.57
2017-11-04T11:44:30.653Z,80.56
2017-11-04T11:46:58.270Z,79.68
2017-11-04T11:49:25.959Z,79.29
2017-11-04T11:51:53.586Z,79.56
2017-11-04T11:54:21.291Z,79.23
2017-11-04T11:56:48.942Z,80.14
2017-11-04T11:59:16.585Z,80.41
2017-11-04T12:01:44.259Z,80.93
2017-11-04T12:04:11.886Z,80.77
2017-11-04T12:06:39.543Z,79.93
2017-11-04T12:09:07.162Z,79.46
2017-11-04T12:11:34.819Z,79.15
2017-11-04T12:14:02.439Z,78.56
2017-11-04T12:16:30.103Z,77.28
2017-11-04T12:18:57.729Z,75.57
2017-11-04T12:21:25.401Z,74.45
2017-11-04T12:23:53.086Z,73.58
2017-11-04T12:26:20.766Z,72.91
2017-11-04T12:28:48.402Z,72.17
2017-11-04T12:31:16.046Z,71.90
2017-11-04T12:33:43.671Z,71.84
2017-11-04T12:36:11.518Z,72.23
2017-11-04T12:38:39.159Z,72.38
2017-11-04T12:41:06.933Z,71.80
2017-11-04T12:43:34.549Z,71.45
2017-11-04T12:46:02.209Z,71.75
2017-11-04T12:48:29.865Z,72.10
2017-11-04T12:50:57.498Z,72.02
2017-11-04T12:53:25.149Z,72.19
2017-11-04T12:55:52.762Z,71.62
2017-11-04T12:58:20.449Z,71.56
2017-11-04T13:00:48.053Z,71.82
2017-11-04T13:03:15.724Z,71.76
2017-11-04T13:05:43.345Z,71.90
2017-11-04T13:08:10.998Z,71.60
2017-11-04T13:10:38.600Z,71.30
2017-11-04T13:13:06.278Z,71.07
2017-11-04T13:15:33.969Z,71.19
2017-11-04T13:18:01.634Z,70.28
2017-11-04T13:20:29.354Z,70.13
2017-11-04T13:22:57.025Z,70.58
2017-11-04T13:25:24.649Z,70.29
2017-11-04T13:27:52.281Z,71.02
2017-11-04T13:30:19.951Z,71.19
2017-11-04T13:32:47.588Z,71.21
2017-11-04T13:35:15.258Z,71.00
2017-11-04T13:37:42.898Z,70.93
2017-11-04T13:40:10.551Z,71.06
2017-11-04T13:42:38.190Z,71.17
2017-11-04T13:45:05.868Z,71.41
2017-11-04T13:47:33.610Z,71.08
2017-11-04T13:50:01.251Z,71.20
2017-11-04T13:52:28.885Z,70.88
2017-11-04T13:54:56.546Z,70.96
2017-11-04T13:57:24.188Z,71.37
2017-11-04T13:59:51.821Z,71.24
2017-11-04T14:02:19.478Z,70.96
2017-11-04T14:04:47.108Z,70.81
2017-11-04T14:07:14.857Z,70.95
2017-11-04T14:09:42.501Z,69.52
2017-11-04T14:12:10.133Z,68.10
2017-11-04T14:14:37.805Z,67.84
2017-11-04T14:17:05.454Z,67.68
2017-11-04T14:19:33.145Z,67.86
2017-11-04T14:22:00.785Z,68.51
2017-11-04T14:24:28.454Z,69.14
2017-11-04T14:26:56.092Z,69.31
2017-11-04T14:29:23.754Z,69.33
2017-11-04T14:31:51.395Z,69.56
2017-11-04T14:34:19.062Z,69.64
2017-11-04T14:36:46.795Z,70.17
2017-11-04T14:39:14.484Z,70.14
2017-11-04T14:41:42.118Z,70.70
2017-11-04T14:44:09.726Z,71.31
2017-11-04T14:46:37.362Z,72.22
2017-11-04T14:49:04.975Z,73.20
2017-11-04T14:51:32.635Z,73.60
2017-11-04T14:54:00.242Z,73.84
2017-11-04T14:56:27.876Z,73.84
2017-11-04T14:58:55.498Z,74.05
2017-11-04T15:01:23.151Z,74.26
2017-11-04T15:03:50.753Z,74.61
2017-11-04T15:06:18.394Z,74.38
2017-11-04T15:08:46.022Z,74.31
2017-11-04T15:11:13.684Z,74.36
2017-11-04T15:13:41.316Z,74.08
2017-11-04T15:16:08.983Z,74.28
2017-11-04T15:18:36.624Z,73.98
2017-11-04T15:21:04.308Z,73.89
2017-11-04T15:23:31.925Z,73.82
2017-11-04T15:25:59.758Z,74.00
2017-11-04T15:28:27.494Z,73.99
2017-11-04T15:30:55.161Z,74.11
2017-11-04T15:33:22.840Z,74.36
2017-11-04T15:35:50.556Z,74.52
2017-11-04T15:38:18.264Z,74.56
2017-11-04T15:40:45.939Z,74.75
2017-11-04T15:43:13.722Z,74.82
2017-11-04T15:45:41.400Z,75.16
2017-11-04T15:48:09.049Z,75.09
2017-11-04T15:50:36.703Z,75.14
2017-11-04T15:53:04.320Z,75.27
2017-11-04T15:55:31.994Z,75.11
2017-11-04T15:57:59.742Z,75.30
2017-11-04T16:00:27.432Z,75.42
2017-11-04T16:02:55.183Z,75.53
2017-11-04T16:05:22.910Z,75.73
2017-11-04T16:07:50.602Z,76.17
2017-11-04T16:10:18.406Z,77.33
2017-11-04T16:12:46.156Z,78.77
2017-11-04T16:15:13.894Z,79.30
2017-11-04T16:17:41.530Z,80.19
2017-11-04T16:20:09.259Z,81.06
2017-11-04T16:22:36.912Z,81.21
2017-11-04T16:25:04.646Z,80.75
2017-11-04T16:27:32.415Z,80.56
2017-11-04T16:30:00.082Z,80.18
2017-11-04T16:32:27.821Z,79.65
2017-11-04T16:34:55.477Z,79.10
2017-11-04T16:37:23.094Z,79.05
2017-11-04T16:39:50.733Z,79.45
2017-11-04T16:42:18.359Z,79.47
2017-11-04T16:44:46.010Z,80.10
2017-11-04T16:47:13.647Z,80.16
2017-11-04T16:49:41.333Z,79.66
2017-11-04T16:52:08.959Z,79.75
2017-11-04T16:54:36.596Z,79.51
2017-11-04T16:57:04.233Z,79.83
2017-11-04T16:59:31.860Z,79.99
2017-11-04T17:01:59.522Z,80.01
2017-11-04T17:04:27.186Z,80.34
2017-11-04T17:06:54.845Z,80.44
2017-11-04T17:09:22.474Z,80.38
2017-11-04T17:11:50.178Z,80.34
2017-11-04T17:14:17.784Z,80.46
2017-11-04T17:16:45.456Z,80.64
2017-11-04T17:19:13.141Z,82.28
2017-11-04T17:21:40.802Z,84.15
2017-11-04T17:24:08.456Z,83.98
2017-11-04T17:26:36.130Z,84.35
2017-11-04T17:29:03.756Z,84.82
2017-11-04T17:31:31.400Z,85.22
2017-11-04T17:33:59.026Z,84.58
2017-11-04T17:36:26.684Z,84.04
2017-11-04T17:38:54.302Z,84.42
2017-11-04T17:41:21.940Z,84.01
2017-11-04T17:43:49.622Z,84.38
2017-11-04T17:46:17.283Z,84.04
2017-11-04T17:48:44.877Z,83.78
2017-11-04T17:51:12.544Z,83.75
2017-11-04T17:53:40.153Z,83.68
2017-11-04T17:56:07.820Z,83.65
2017-11-04T17:58:35.443Z,83.93
2017-11-04T18:01:03.222Z,83.99
2017-11-04T18:03:30.865Z,84.11
2017-11-04T18:05:58.522Z,84.28
2017-11-04T18:08:26.160Z,84.28
2017-11-04T18:10:53.837Z,84.54
2017-11-04T18:13:21.458Z,84.49
2017-11-04T18:15:49.093Z,84.49
2017-11-04T18:18:16.781Z,84.40
2017-11-04T18:20:44.425Z,84.29
2017-11-04T18:23:12.042Z,84.28
2017-11-04T18:25:39.806Z,84.33
2017-11-04T18:28:07.444Z,84.38
2017-11-04T18:30:35.178Z,84.34
2017-11-04T18:33:02.805Z,84.37
2017-11-04T18:35:30.490Z,84.49
2017-11-04T18:37:58.122Z,84.61
2017-11-04T18:40:25.777Z,84.78
2017-11-04T18:42:53.411Z,85.05
2017-11-04T18:45:21.046Z,85.17
2017-11-04T18:47:48.791Z,85.43
2017-11-04T18:50:16.422Z,85.30
2017-11-04T18:52:44.098Z,85.26
2017-11-04T18:55:11.721Z,85.25
2017-11-04T18:57:39.389Z,84.90
2017-11-04T19:00:07.037Z,84.82
2017-11-04T19:02:34.694Z,84.81
2017-11-04T19:05:02.318Z,84.86
2017-11-04T19:07:29.974Z,84.97
2017-11-04T19:09:57.598Z,85.04
2017-11-04T19:12:25.267Z,84.75
2017-11-04T19:14:52.921Z,84.70
2017-11-04T19:17:20.589Z,84.64
2017-11-04T19:19:48.219Z,84.82
2017-11-04T19:22:15.897Z,84.78
2017-11-04T19:24:43.507Z,84.72
2017-11-04T19:27:11.123Z,84.67
2017-11-04T19:29:38.845Z,84.48
2017-11-04T19:32:06.478Z,84.54
2017-11-04T19:34:34.164Z,84.48
2017-11-04T19:37:01.802Z,84.46
2017-11-04T19:39:29.559Z,84.47
2017-11-04T19:41:57.185Z,84.61
2017-11-04T19:44:24.874Z,84.65
2017-11-04T19:46:52.509Z,84.58
2017-11-04T19:49:20.182Z,84.57
2017-11-04T19:51:47.811Z,84.59
2017-11-04T19:54:15.465Z,84.71
2017-11-04T19:56:43.089Z,84.55
2017-11-04T19:59:10.752Z,84.57
2017-11-04T20:01:38.369Z,84.60
2017-11-04T20:04:06.032Z,84.81
2017-11-04T20:06:33.649Z,85.01
2017-11-04T20:09:01.303Z,84.93
2017-11-04T20:11:28.928Z,84.82
2017-11-04T20:13:56.601Z,84.89
2017-11-04T20:16:24.258Z,84.83
2017-11-04T20:18:51.919Z,84.77
2017-11-04T20:21:19.521Z,84.76
2017-11-04T20:23:47.226Z,84.81
2017-11-04T20:26:14.881Z,84.74
2017-11-04T20:28:42.536Z,84.84
2017-11-04T20:31:10.146Z,84.90
2017-11-04T20:33:37.798Z,84.83
2017-11-04T20:36:05.426Z,84.88
2017-11-04T20:38:33.079Z,84.95
2017-11-04T20:41:00.688Z,84.94
2017-11-04T20:43:28.327Z,84.88
2017-11-04T20:45:56.110Z,84.99
2017-11-04T20:48:23.817Z,84.90
2017-11-04T20:50:51.440Z,84.97
2017-11-04T20:53:19.114Z,85.08
2017-11-04T20:55:46.743Z,85.18
2017-11-04T20:58:14.381Z,85.29
2017-11-04T21:00:41.994Z,85.26
2017-11-04T21:03:09.685Z,85.42
2017-11-04T21:05:37.317Z,85.46
2017-11-04T21:08:04.927Z,85.38
2017-11-04T21:10:32.554Z,85.40
2017-11-04T21:13:00.215Z,85.60
2017-11-04T21:15:27.855Z,85.47
2017-11-04T21:17:55.539Z,85.49
2017-11-04T21:20:23.258Z,85.68
2017-11-04T21:22:50.902Z,85.59
2017-11-04T21:25:18.510Z,85.71
2017-11-04T21:27:46.183Z,85.71
2017-11-04T21:30:13.796Z,85.93
2017-11-04T21:32:41.439Z,85.89
2017-11-04T21:35:09.078Z,85.87
2017-11-04T21:37:36.786Z,85.78
2017-11-04T21:40:04.382Z,85.69
2017-11-04T21:42:32.051Z,85.57
2017-11-04T21:44:59.668Z,85.60
2017-11-04T21:47:27.328Z,85.58
2017-11-04T21:49:54.953Z,85.60
2017-11-04T21:52:22.669Z,85.50
2017-11-04T21:54:50.286Z,85.47
2017-11-04T21:57:17.962Z,85.69
2017-11-04T21:59:45.576Z,85.69
2017-11-04T22:02:13.235Z,85.31
2017-11-04T22:04:40.847Z,85.16
2017-11-04T22:07:08.555Z,85.27
2017-11-04T22:09:36.172Z,85.40
2017-11-04T22:12:03.850Z,85.63
2017-11-04T22:14:31.488Z,85.84
2017-11-04T22:16:59.291Z,85.67
2017-11-04T22:19:26.924Z,85.70
2017-11-04T22:21:54.587Z,85.64
2017-11-04T22:24:22.223Z,85.88
2017-11-04T22:26:49.929Z,85.65
2017-11-04T22:29:17.555Z,85.69
2017-11-04T22:31:45.189Z,85.64
2017-11-04T22:34:12.849Z,85.59
2017-11-04T22:36:40.496Z,85.56
2017-11-04T22:39:08.119Z,85.65
2017-11-04T22:41:35.890Z,85.65
2017-11-04T22:44:03.504Z,85.77
2017-11-04T22:46:31.131Z,85.65
2017-11-04T22:48:58.786Z,85.96
2017-11-04T22:51:26.414Z,86.13
2017-11-04T22:53:54.072Z,86.52
2017-11-04T22:56:21.685Z,86.68
2017-11-04T22:58:49.330Z,86.77
2017-11-04T23:01:16.955Z,86.85
2017-11-04T23:03:44.597Z,87.16
2017-11-04T23:06:12.230Z,87.24
2017-11-04T23:08:39.877Z,87.44
2017-11-04T23:11:07.523Z,87.68
2017-11-04T23:13:35.197Z,87.74
2017-11-04T23:16:02.826Z,87.90
2017-11-04T23:18:30.486Z,88.27
2017-11-04T23:20:58.126Z,88.18
2017-11-04T23:23:25.797Z,88.45
2017-11-04T23:25:53.386Z,88.94
2017-11-04T23:28:21.006Z,89.11
2017-11-04T23:30:48.588Z,89.31
2017-11-04T23:33:16.223Z,89.64
2017-11-04T23:35:43.899Z,89.77
2017-11-04T23:38:11.522Z,90.01
2017-11-04T23:40:39.131Z,90.61
2017-11-04T23:43:06.767Z,90.73
2017-11-04T23:45:34.366Z,90.63
2017-11-04T23:48:01.979Z,90.27
2017-11-04T23:50:29.535Z,90.03
2017-11-04T23:52:57.160Z,90.04
2017-11-04T23:55:24.771Z,90.35
2017-11-04T23:57:52.378Z,90.82
